This is the latest recevied weather packets stored in our database for station/object KC5EZZ-2. If no packets are shown the sender has not sent any weather packets the latest 10 day(s).
| Time | Temp. | Humidity | Pressure | Rain* | Wind** | Luminosity | Snow |
|---|---|---|---|---|---|---|---|
| 1777463649 | 19.44° C | - | - | 0 mm | 3.58 m/s, 48° | - | - |
| 1777463047 | 20° C | - | - | 0 mm | 3.13 m/s, 7° | - | - |
| 1777462748 | 19.44° C | - | - | 0 mm | 3.58 m/s, 8° | - | - |
| 1777462448 | 19.44° C | - | - | 0 mm | 2.68 m/s, 7° | - | - |
| 1777462146 | 19.44° C | - | - | 0 mm | 3.13 m/s, 41° | - | - |
| 1777461846 | 20° C | - | - | 0 mm | 4.02 m/s, 35° | - | - |
| 1777461547 | 20° C | - | - | 0 mm | 3.58 m/s, 10° | - | - |
| 1777461245 | 20° C | - | - | 0 mm | 3.58 m/s, 14° | - | - |
| 1777460945 | 20° C | - | - | 0 mm | 3.58 m/s, 10° | - | - |
| 1777460646 | 20° C | - | - | 0 mm | 3.58 m/s, 35° | - | - |
| 1777460343 | 20° C | - | - | 0 mm | 3.58 m/s, 41° | - | - |
| 1777460044 | 19.44° C | - | - | 0 mm | 3.58 m/s, 4° | - | - |
| 1777459744 | 20° C | - | - | 0 mm | 4.92 m/s, 353° | - | - |
| 1777459442 | 20° C | - | - | 0 mm | 3.58 m/s, 14° | - | - |
| 1777459142 | 20° C | - | - | 0 mm | 4.02 m/s, 13° | - | - |
| 1777458843 | 20° C | - | - | 0 mm | 4.02 m/s, 4° | - | - |
| 1777458541 | 20° C | - | - | 0 mm | 3.13 m/s, 23° | - | - |
| 1777458241 | 20° C | - | - | 0 mm | 4.02 m/s, 353° | - | - |
| 1777457942 | 20° C | - | - | 0 mm | 3.58 m/s, 347° | - | - |
| 1777457340 | 20° C | - | - | 0 mm | 4.02 m/s, 357° | - | - |
| 1777457041 | 20° C | - | - | 0 mm | 4.02 m/s, 318° | - | - |
| 1777456735 | 20° C | - | - | 0 mm | 4.02 m/s, 318° | - | - |
| 1777456436 | 20.56° C | - | - | 0 mm | 4.02 m/s, 336° | - | - |
| 1777456136 | 20° C | - | - | 0 mm | 4.02 m/s, 333° | - | - |
| 1777455834 | 20.56° C | - | - | 0 mm | 3.58 m/s, 322° | - | - |
* Rain latest hour (hover to see other rain measurements)
** Current wind speed in m/s (hover to see current wind gust speed)